createdAt,value
2022-11-05T00:01:01.410Z,9.50
2022-11-05T00:03:22.082Z,9.50
2022-11-05T00:05:42.312Z,9.50
2022-11-05T00:08:07.260Z,9.60
2022-11-05T00:10:16.561Z,9.50
2022-11-05T00:12:50.386Z,9.40
2022-11-05T00:15:10.448Z,9.40
2022-11-05T00:17:12.029Z,9.40
2022-11-05T00:19:14.878Z,9.50
2022-11-05T00:21:35.108Z,9.60
2022-11-05T00:23:55.295Z,9.50
2022-11-05T00:25:57.669Z,9.40
2022-11-05T00:28:02.747Z,9.40
2022-11-05T00:30:04.596Z,9.40
2022-11-05T00:32:06.202Z,9.40
2022-11-05T00:34:07.774Z,9.40
2022-11-05T00:36:10.479Z,9.50
2022-11-05T00:38:12.200Z,9.40
2022-11-05T00:40:14.585Z,9.50
2022-11-05T00:42:35.270Z,9.50
2022-11-05T00:44:55.573Z,9.40
2022-11-05T00:47:17.187Z,9.40
2022-11-05T00:49:30.925Z,9.30
2022-11-05T00:51:32.535Z,9.30
2022-11-05T00:53:34.561Z,9.40
2022-11-05T00:55:40.763Z,9.40
2022-11-05T00:57:42.356Z,9.40
2022-11-05T00:59:43.923Z,9.40
2022-11-05T01:01:45.596Z,9.40
2022-11-05T01:03:51.444Z,9.60
2022-11-05T01:05:57.303Z,9.50
2022-11-05T01:07:58.914Z,9.50
2022-11-05T01:10:00.498Z,9.60
2022-11-05T01:12:02.089Z,9.60
2022-11-05T01:14:05.155Z,9.60
2022-11-05T01:16:08.188Z,9.50
2022-11-05T01:18:09.850Z,9.50
2022-11-05T01:20:11.817Z,9.40
2022-11-05T01:22:13.421Z,9.40
2022-11-05T01:24:14.985Z,9.50
2022-11-05T01:26:16.698Z,9.40
2022-11-05T01:28:18.381Z,9.50
2022-11-05T01:30:20.175Z,9.50
2022-11-05T01:32:21.996Z,9.50
2022-11-05T01:34:23.556Z,9.50
2022-11-05T01:36:25.115Z,9.50
2022-11-05T01:38:26.684Z,9.50
2022-11-05T01:40:28.363Z,9.50
2022-11-05T01:42:33.408Z,9.50
2022-11-05T01:44:53.698Z,9.50
2022-11-05T01:46:55.259Z,9.50
2022-11-05T01:49:02.984Z,9.50
2022-11-05T01:51:08.013Z,9.50
2022-11-05T01:53:12.928Z,9.50
2022-11-05T01:55:17.305Z,9.50
2022-11-05T01:57:19.273Z,9.40
2022-11-05T01:59:20.809Z,9.40
2022-11-05T02:01:22.851Z,9.40
2022-11-05T02:03:24.863Z,9.50
2022-11-05T02:05:26.629Z,9.50
2022-11-05T02:07:29.167Z,9.40
2022-11-05T02:09:36.821Z,9.40
2022-11-05T02:11:38.426Z,9.40
2022-11-05T02:13:40.195Z,9.40
2022-11-05T02:16:02.176Z,9.40
2022-11-05T02:18:13.153Z,9.30
2022-11-05T02:20:14.700Z,9.40
2022-11-05T02:22:35.016Z,9.40
2022-11-05T02:24:36.541Z,9.40
2022-11-05T02:26:51.968Z,9.50
2022-11-05T02:29:05.746Z,9.50
2022-11-05T02:31:15.594Z,9.40
2022-11-05T02:33:29.818Z,9.30
2022-11-05T02:35:40.532Z,9.30
2022-11-05T02:38:05.165Z,9.30
2022-11-05T02:40:13.201Z,9.30
2022-11-05T02:42:14.718Z,9.30
2022-11-05T02:44:25.182Z,9.30
2022-11-05T02:46:45.689Z,9.30
2022-11-05T02:48:53.571Z,9.40
2022-11-05T02:50:57.986Z,9.30
2022-11-05T02:53:01.949Z,9.30
2022-11-05T02:55:16.893Z,9.30
2022-11-05T02:57:19.170Z,9.30
2022-11-05T02:59:20.968Z,9.40
2022-11-05T03:01:22.644Z,9.40
2022-11-05T03:03:45.606Z,9.40
2022-11-05T03:06:06.151Z,9.40
2022-11-05T03:08:13.279Z,9.40
2022-11-05T03:10:30.262Z,9.40
2022-11-05T03:12:31.943Z,9.40
2022-11-05T03:14:45.616Z,9.50
2022-11-05T03:16:49.550Z,9.40
2022-11-05T03:18:54.645Z,9.50
2022-11-05T03:20:56.508Z,9.50
2022-11-05T03:23:04.954Z,9.40
2022-11-05T03:25:10.826Z,9.40
2022-11-05T03:27:14.105Z,9.40
2022-11-05T03:29:19.255Z,9.50
2022-11-05T03:31:22.468Z,9.50
2022-11-05T03:33:27.573Z,9.50
2022-11-05T03:35:31.514Z,9.50
2022-11-05T03:37:36.274Z,9.50
2022-11-05T03:39:40.810Z,9.60
2022-11-05T03:41:44.365Z,9.60
2022-11-05T03:43:48.054Z,9.60
2022-11-05T03:46:10.098Z,9.60
2022-11-05T03:48:13.291Z,9.50
2022-11-05T03:50:21.731Z,9.40
2022-11-05T03:52:26.172Z,9.40
2022-11-05T03:54:28.312Z,9.50
2022-11-05T03:56:32.664Z,9.50
2022-11-05T03:58:35.187Z,9.50
2022-11-05T04:00:36.805Z,9.50
2022-11-05T04:02:38.624Z,9.60
2022-11-05T04:04:40.558Z,9.70
2022-11-05T04:07:01.025Z,9.70
2022-11-05T04:09:28.631Z,9.60
2022-11-05T04:11:48.655Z,9.40
2022-11-05T04:13:50.187Z,9.40
2022-11-05T04:16:11.277Z,9.30
2022-11-05T04:18:12.889Z,9.40
2022-11-05T04:20:33.670Z,9.40
2022-11-05T04:22:54.306Z,9.50
2022-11-05T04:24:56.030Z,9.50
2022-11-05T04:26:57.786Z,9.50
2022-11-05T04:29:18.070Z,9.60
2022-11-05T04:31:19.627Z,9.60
2022-11-05T04:33:21.230Z,9.50
2022-11-05T04:35:23.186Z,9.40
2022-11-05T04:37:24.790Z,9.40
2022-11-05T04:39:26.429Z,9.50
2022-11-05T04:41:28.181Z,9.50
2022-11-05T04:43:29.729Z,9.50
2022-11-05T04:45:34.169Z,9.50
2022-11-05T04:47:35.932Z,9.40
2022-11-05T04:49:37.639Z,9.40
2022-11-05T04:51:39.318Z,9.40
2022-11-05T04:53:40.970Z,9.50
2022-11-05T04:55:42.651Z,9.50
2022-11-05T04:57:46.991Z,9.40
2022-11-05T04:59:49.471Z,9.30
2022-11-05T05:01:52.599Z,9.40
2022-11-05T05:03:54.809Z,9.40
2022-11-05T05:06:03.569Z,9.50
2022-11-05T05:08:05.935Z,9.40
2022-11-05T05:10:08.350Z,9.50
2022-11-05T05:12:09.947Z,9.50
2022-11-05T05:14:11.545Z,9.50
2022-11-05T05:16:21.121Z,9.50
2022-11-05T05:18:22.787Z,9.50
2022-11-05T05:20:43.046Z,9.50
2022-11-05T05:22:50.679Z,9.40
2022-11-05T05:24:53.055Z,9.30
2022-11-05T05:26:54.802Z,9.40
2022-11-05T05:28:56.517Z,9.30
2022-11-05T05:30:59.284Z,9.30
2022-11-05T05:33:04.169Z,9.30
2022-11-05T05:35:06.066Z,9.30
2022-11-05T05:37:07.823Z,9.20
2022-11-05T05:39:11.067Z,9.20
2022-11-05T05:41:13.048Z,9.20
2022-11-05T05:43:14.633Z,9.20
2022-11-05T05:45:16.188Z,9.20
2022-11-05T05:47:17.769Z,9.30
2022-11-05T05:49:19.342Z,9.30
2022-11-05T05:51:20.958Z,9.30
2022-11-05T05:53:22.557Z,9.40
2022-11-05T05:55:24.317Z,9.40
2022-11-05T05:57:25.959Z,9.30
2022-11-05T05:59:27.534Z,9.30
2022-11-05T06:01:29.119Z,9.30
2022-11-05T06:03:31.118Z,9.30
2022-11-05T06:05:32.674Z,9.30
2022-11-05T06:07:37.310Z,9.30
2022-11-05T06:09:39.342Z,9.30
2022-11-05T06:11:41.242Z,9.30
2022-11-05T06:13:42.901Z,9.40
2022-11-05T06:15:44.565Z,9.40
2022-11-05T06:17:46.278Z,9.40
2022-11-05T06:19:47.898Z,9.40
2022-11-05T06:21:49.498Z,9.40
2022-11-05T06:23:51.149Z,9.40
2022-11-05T06:25:52.782Z,9.40
2022-11-05T06:27:54.336Z,9.40
2022-11-05T06:29:56.159Z,9.40
2022-11-05T06:31:57.808Z,9.40
2022-11-05T06:33:59.547Z,9.40
2022-11-05T06:36:01.817Z,9.50
2022-11-05T06:38:03.521Z,9.50
2022-11-05T06:40:05.438Z,9.40
2022-11-05T06:42:22.347Z,9.40
2022-11-05T06:44:23.936Z,9.40
2022-11-05T06:46:25.515Z,9.40
2022-11-05T06:48:27.086Z,9.50
2022-11-05T06:50:29.090Z,9.50
2022-11-05T06:52:31.383Z,9.50
2022-11-05T06:54:32.980Z,9.50
2022-11-05T06:56:34.658Z,9.50
2022-11-05T06:58:36.233Z,9.60
2022-11-05T07:00:37.912Z,9.50
2022-11-05T07:02:39.625Z,9.60
2022-11-05T07:04:41.250Z,9.60
2022-11-05T07:06:42.868Z,9.60
2022-11-05T07:08:44.701Z,9.60
2022-11-05T07:10:46.285Z,9.60
2022-11-05T07:12:47.919Z,9.50
2022-11-05T07:14:49.612Z,9.50
2022-11-05T07:16:51.157Z,9.60
2022-11-05T07:18:52.868Z,9.70
2022-11-05T07:20:54.601Z,9.80
2022-11-05T07:23:02.592Z,9.70
2022-11-05T07:25:04.852Z,9.90
2022-11-05T07:27:06.414Z,9.90
2022-11-05T07:29:07.988Z,10.00
2022-11-05T07:31:09.608Z,9.80
2022-11-05T07:33:11.628Z,9.70
2022-11-05T07:35:13.642Z,9.80
2022-11-05T07:37:16.696Z,9.80
2022-11-05T07:39:18.358Z,9.80
2022-11-05T07:41:20.023Z,9.90
2022-11-05T07:43:21.577Z,9.80
2022-11-05T07:45:23.203Z,9.80
2022-11-05T07:47:24.807Z,9.80
2022-11-05T07:49:26.394Z,9.80
2022-11-05T07:51:28.035Z,9.80
2022-11-05T07:53:29.635Z,10.00
2022-11-05T07:55:31.521Z,10.10
2022-11-05T07:57:39.598Z,10.20
2022-11-05T07:59:41.151Z,10.20
2022-11-05T08:01:42.847Z,10.10
2022-11-05T08:03:44.714Z,10.10
2022-11-05T08:05:47.108Z,10.10
2022-11-05T08:07:48.737Z,9.90
2022-11-05T08:09:50.439Z,10.10
2022-11-05T08:11:53.077Z,10.20
2022-11-05T08:13:55.162Z,10.00
2022-11-05T08:15:57.477Z,10.00
2022-11-05T08:18:04.918Z,9.90
2022-11-05T08:20:06.644Z,9.80
2022-11-05T08:22:08.242Z,9.80
2022-11-05T08:24:09.918Z,9.70
2022-11-05T08:26:11.614Z,9.60
2022-11-05T08:28:13.477Z,9.50
2022-11-05T08:30:15.081Z,9.60
2022-11-05T08:32:16.764Z,9.50
2022-11-05T08:34:18.408Z,9.60
2022-11-05T08:36:19.997Z,9.50
2022-11-05T08:38:21.667Z,9.50
2022-11-05T08:40:23.513Z,9.50
2022-11-05T08:42:25.122Z,9.50
2022-11-05T08:44:26.703Z,9.50
2022-11-05T08:46:28.282Z,9.50
2022-11-05T08:48:29.966Z,9.50
2022-11-05T08:50:32.128Z,9.50
2022-11-05T08:52:33.688Z,9.40
2022-11-05T08:54:35.431Z,9.30
2022-11-05T08:56:37.078Z,9.30
2022-11-05T08:58:38.674Z,9.30
2022-11-05T09:00:40.546Z,9.10
2022-11-05T09:02:42.295Z,9.10
2022-11-05T09:04:44.460Z,9.00
2022-11-05T09:06:46.136Z,9.00
2022-11-05T09:08:47.823Z,9.00
2022-11-05T09:10:49.947Z,8.90
2022-11-05T09:12:51.567Z,9.00
2022-11-05T09:14:53.200Z,8.90
2022-11-05T09:16:54.770Z,9.00
2022-11-05T09:18:56.863Z,9.10
2022-11-05T09:20:58.438Z,9.00
2022-11-05T09:23:00.110Z,9.10
2022-11-05T09:25:01.657Z,9.20
2022-11-05T09:27:03.368Z,9.00
2022-11-05T09:29:04.951Z,9.20
2022-11-05T09:31:08.408Z,9.20
2022-11-05T09:33:10.833Z,9.30
2022-11-05T09:35:12.726Z,9.50
2022-11-05T09:37:14.290Z,9.30
2022-11-05T09:39:15.855Z,9.30
2022-11-05T09:41:23.635Z,9.20
2022-11-05T09:43:31.726Z,9.20
2022-11-05T09:45:35.285Z,9.40
2022-11-05T09:47:40.109Z,9.30
2022-11-05T09:49:44.381Z,9.30
2022-11-05T09:51:46.089Z,9.40
2022-11-05T09:53:48.579Z,9.60
2022-11-05T09:55:54.947Z,9.50
2022-11-05T09:58:01.364Z,9.40
2022-11-05T10:00:05.171Z,9.40
2022-11-05T10:02:13.175Z,9.50
2022-11-05T10:04:17.527Z,9.60
2022-11-05T10:06:21.143Z,9.40
2022-11-05T10:08:24.615Z,9.40
2022-11-05T10:10:41.549Z,9.40
2022-11-05T10:12:45.680Z,9.30
2022-11-05T10:14:49.411Z,9.40
2022-11-05T10:17:12.784Z,9.40
2022-11-05T10:19:14.368Z,9.50
2022-11-05T10:21:17.107Z,9.30
2022-11-05T10:23:19.878Z,9.40
2022-11-05T10:25:22.349Z,9.50
2022-11-05T10:27:27.842Z,9.50
2022-11-05T10:29:30.559Z,9.60
2022-11-05T10:31:35.664Z,9.50
2022-11-05T10:33:40.345Z,9.50
2022-11-05T10:35:46.873Z,9.60
2022-11-05T10:37:49.214Z,9.80
2022-11-05T10:39:51.020Z,9.60
2022-11-05T10:41:58.532Z,9.50
2022-11-05T10:44:17.725Z,9.60
2022-11-05T10:46:20.506Z,9.60
2022-11-05T10:48:22.072Z,9.70
2022-11-05T10:50:25.286Z,9.50
2022-11-05T10:52:31.806Z,9.60
2022-11-05T10:54:34.178Z,9.60
2022-11-05T10:56:36.881Z,9.50
2022-11-05T10:58:42.076Z,9.80
2022-11-05T11:00:49.928Z,9.80
2022-11-05T11:02:54.337Z,10.00
2022-11-05T11:04:58.436Z,9.80
2022-11-05T11:07:00.193Z,9.70
2022-11-05T11:09:03.271Z,9.70
2022-11-05T11:11:07.650Z,9.70
2022-11-05T11:13:23.677Z,9.70
2022-11-05T11:15:32.528Z,9.80
2022-11-05T11:17:34.311Z,10.00
2022-11-05T11:19:36.213Z,10.00
2022-11-05T11:21:38.986Z,9.90
2022-11-05T11:23:41.527Z,9.90
2022-11-05T11:25:49.018Z,9.80
2022-11-05T11:27:50.933Z,9.80
2022-11-05T11:30:00.113Z,9.80
2022-11-05T11:32:01.882Z,9.90
2022-11-05T11:34:05.115Z,10.00
2022-11-05T11:36:07.112Z,10.00
2022-11-05T11:38:13.502Z,10.10
2022-11-05T11:40:17.271Z,10.30
2022-11-05T11:42:29.022Z,10.40
2022-11-05T11:44:32.540Z,10.80
2022-11-05T11:46:35.177Z,10.80
2022-11-05T11:48:40.040Z,10.90
2022-11-05T11:50:42.838Z,10.90
2022-11-05T11:52:44.444Z,11.10
2022-11-05T11:54:46.024Z,11.10
2022-11-05T11:56:48.247Z,11.20
2022-11-05T11:58:54.508Z,10.90
2022-11-05T12:01:01.722Z,10.80
2022-11-05T12:03:09.379Z,10.40
2022-11-05T12:05:10.966Z,10.50
2022-11-05T12:07:27.934Z,10.70
2022-11-05T12:09:44.909Z,10.70
2022-11-05T12:11:49.483Z,10.80
2022-11-05T12:13:51.081Z,11.10
2022-11-05T12:15:55.701Z,11.30
2022-11-05T12:18:05.064Z,11.20
2022-11-05T12:20:22.088Z,11.00
2022-11-05T12:22:29.731Z,11.20
2022-11-05T12:24:49.971Z,11.40
2022-11-05T12:27:11.274Z,11.30
2022-11-05T12:29:35.599Z,11.30
2022-11-05T12:31:37.662Z,11.40
2022-11-05T12:33:42.568Z,11.10
2022-11-05T12:35:58.236Z,11.20
2022-11-05T12:38:18.942Z,11.20
2022-11-05T12:40:29.620Z,11.30
2022-11-05T12:42:50.050Z,11.20
2022-11-05T12:45:21.258Z,11.10
2022-11-05T12:47:31.942Z,11.00
2022-11-05T12:49:33.690Z,11.00
2022-11-05T12:51:41.344Z,11.10
2022-11-05T12:54:01.322Z,11.00
2022-11-05T12:56:06.586Z,11.10
2022-11-05T12:58:19.358Z,11.20
2022-11-05T13:00:24.866Z,11.10
2022-11-05T13:02:30.109Z,11.00
2022-11-05T13:04:34.901Z,11.10
2022-11-05T13:06:42.002Z,11.20
2022-11-05T13:08:49.610Z,11.10
2022-11-05T13:11:00.810Z,10.90
2022-11-05T13:13:06.428Z,11.00
2022-11-05T13:15:18.958Z,11.10
2022-11-05T13:17:25.938Z,10.90
2022-11-05T13:19:37.089Z,10.80
2022-11-05T13:21:39.045Z,10.80
2022-11-05T13:23:44.163Z,10.90
2022-11-05T13:25:52.444Z,10.90
2022-11-05T13:27:57.207Z,11.00
2022-11-05T13:30:03.123Z,11.00
2022-11-05T13:32:12.367Z,10.80
2022-11-05T13:34:14.020Z,10.90
2022-11-05T13:36:37.939Z,10.90
2022-11-05T13:38:59.888Z,11.00
2022-11-05T13:41:04.545Z,10.90
2022-11-05T13:43:09.651Z,11.00
2022-11-05T13:45:14.393Z,10.90
2022-11-05T13:47:25.183Z,10.90
2022-11-05T13:49:29.913Z,10.90
2022-11-05T13:51:37.692Z,10.90
2022-11-05T13:53:43.408Z,11.00
2022-11-05T13:55:54.151Z,10.90
2022-11-05T13:58:05.198Z,11.00
2022-11-05T14:00:11.586Z,11.00
2022-11-05T14:02:25.248Z,11.00
2022-11-05T14:04:31.262Z,11.00
2022-11-05T14:06:34.278Z,10.90
2022-11-05T14:08:41.194Z,10.90
2022-11-05T14:10:42.848Z,10.90
2022-11-05T14:12:47.974Z,10.90
2022-11-05T14:14:58.488Z,10.80
2022-11-05T14:17:09.524Z,10.80
2022-11-05T14:19:20.301Z,10.80
2022-11-05T14:21:29.602Z,10.70
2022-11-05T14:23:31.140Z,10.80
2022-11-05T14:25:53.043Z,10.80
2022-11-05T14:27:57.837Z,10.70
2022-11-05T14:30:00.326Z,10.70
2022-11-05T14:32:23.720Z,10.70
2022-11-05T14:34:42.830Z,10.70
2022-11-05T14:36:45.565Z,10.60
2022-11-05T14:39:04.090Z,10.60
2022-11-05T14:41:06.745Z,10.60
2022-11-05T14:43:18.639Z,10.50
2022-11-05T14:45:25.687Z,10.50
2022-11-05T14:47:29.686Z,10.50
2022-11-05T14:49:33.378Z,10.50
2022-11-05T14:51:44.296Z,10.50
2022-11-05T14:53:45.972Z,10.50
2022-11-05T14:55:56.494Z,10.40
2022-11-05T14:57:58.064Z,10.40
2022-11-05T15:00:00.866Z,10.30
2022-11-05T15:02:05.881Z,10.30
2022-11-05T15:04:25.792Z,10.30
2022-11-05T15:06:29.205Z,10.30
2022-11-05T15:08:30.841Z,10.20
2022-11-05T15:10:35.167Z,10.20
2022-11-05T15:12:44.557Z,10.20
2022-11-05T15:15:00.059Z,10.20
2022-11-05T15:17:21.873Z,10.20
2022-11-05T15:19:23.944Z,10.20
2022-11-05T15:21:25.703Z,10.10
2022-11-05T15:23:33.180Z,10.10
2022-11-05T15:25:34.706Z,10.10
2022-11-05T15:27:39.183Z,10.10
2022-11-05T15:29:40.913Z,10.10
2022-11-05T15:31:45.317Z,10.10
2022-11-05T15:33:50.784Z,10.10
2022-11-05T15:35:52.401Z,10.00
2022-11-05T15:38:01.358Z,10.00
2022-11-05T15:40:19.873Z,10.00
2022-11-05T15:42:25.771Z,9.80
2022-11-05T15:44:31.726Z,9.80
2022-11-05T15:46:33.373Z,9.80
2022-11-05T15:48:35.605Z,9.80
2022-11-05T15:50:37.190Z,9.70
2022-11-05T15:52:45.561Z,9.60
2022-11-05T15:55:05.610Z,9.60
2022-11-05T15:57:16.988Z,9.60
2022-11-05T15:59:22.785Z,9.70
2022-11-05T16:01:27.976Z,9.70
2022-11-05T16:03:31.665Z,9.70
2022-11-05T16:05:34.580Z,9.60
2022-11-05T16:07:36.241Z,9.60
2022-11-05T16:09:40.045Z,9.60
2022-11-05T16:11:41.720Z,9.60
2022-11-05T16:13:43.278Z,9.50
2022-11-05T16:15:52.930Z,9.40
2022-11-05T16:17:55.867Z,9.60
2022-11-05T16:19:57.583Z,9.60
2022-11-05T16:22:01.599Z,9.50
2022-11-05T16:24:03.457Z,9.50
2022-11-05T16:26:05.095Z,9.50
2022-11-05T16:28:19.421Z,9.50
2022-11-05T16:30:21.305Z,9.60
2022-11-05T16:32:31.389Z,9.50
2022-11-05T16:34:33.250Z,9.50
2022-11-05T16:36:34.954Z,9.40
2022-11-05T16:38:36.667Z,9.40
2022-11-05T16:40:38.382Z,9.30
2022-11-05T16:42:40.465Z,9.30
2022-11-05T16:44:45.115Z,9.20
2022-11-05T16:46:47.950Z,9.40
2022-11-05T16:48:49.752Z,9.30
2022-11-05T16:50:51.573Z,9.30
2022-11-05T16:52:53.287Z,9.30
2022-11-05T16:54:54.875Z,9.20
2022-11-05T16:56:56.476Z,9.40
2022-11-05T16:58:58.137Z,9.40
2022-11-05T17:01:04.724Z,9.30
2022-11-05T17:03:06.555Z,9.20
2022-11-05T17:05:25.132Z,9.10
2022-11-05T17:07:26.704Z,9.10
2022-11-05T17:09:28.417Z,9.00
2022-11-05T17:11:30.041Z,8.90
2022-11-05T17:13:31.746Z,8.90
2022-11-05T17:15:35.764Z,9.00
2022-11-05T17:17:37.465Z,9.00
2022-11-05T17:19:42.204Z,8.90
2022-11-05T17:21:44.226Z,8.80
2022-11-05T17:23:45.833Z,8.80
2022-11-05T17:25:48.824Z,8.80
2022-11-05T17:27:50.672Z,8.70
2022-11-05T17:29:52.360Z,8.60
2022-11-05T17:32:06.336Z,8.50
2022-11-05T17:34:09.211Z,8.50
2022-11-05T17:36:12.462Z,8.50
2022-11-05T17:38:14.178Z,8.50
2022-11-05T17:40:20.954Z,8.40
2022-11-05T17:42:22.581Z,8.40
2022-11-05T17:44:27.971Z,8.50
2022-11-05T17:46:32.095Z,8.40
2022-11-05T17:48:36.783Z,8.20
2022-11-05T17:50:40.585Z,8.10
2022-11-05T17:52:48.336Z,8.00
2022-11-05T17:54:55.428Z,8.00
2022-11-05T17:57:04.340Z,8.10
2022-11-05T17:59:13.468Z,8.10
2022-11-05T18:02:02.299Z,8.10
2022-11-05T18:06:30.464Z,7.90
2022-11-05T18:08:32.632Z,7.90
2022-11-05T18:10:38.442Z,7.80
2022-11-05T18:12:44.841Z,7.70
2022-11-05T18:14:49.175Z,7.50
2022-11-05T18:17:03.184Z,7.40
2022-11-05T18:19:09.360Z,7.60
2022-11-05T18:21:12.365Z,7.80
2022-11-05T18:23:17.264Z,7.90
2022-11-05T18:25:24.836Z,7.80
2022-11-05T18:27:31.297Z,7.60
2022-11-05T18:29:37.982Z,7.50
2022-11-05T18:31:42.763Z,7.30
2022-11-05T18:33:58.301Z,7.20
2022-11-05T18:36:05.515Z,7.20
2022-11-05T18:38:11.591Z,7.10
2022-11-05T18:40:18.462Z,7.00
2022-11-05T18:42:21.065Z,6.90
2022-11-05T18:44:24.775Z,6.90
2022-11-05T18:46:55.880Z,6.90
2022-11-05T18:48:48.537Z,7.20
2022-11-05T18:50:50.289Z,7.40
2022-11-05T18:52:51.934Z,7.30
2022-11-05T18:54:56.101Z,7.10
2022-11-05T18:56:57.923Z,7.10
2022-11-05T18:59:35.240Z,7.10
2022-11-05T19:01:32.358Z,6.90
2022-11-05T19:03:37.076Z,7.00
2022-11-05T19:05:39.041Z,6.90
2022-11-05T19:07:48.831Z,7.00
2022-11-05T19:09:50.681Z,6.80
2022-11-05T19:11:57.067Z,6.70
2022-11-05T19:14:01.494Z,6.60
2022-11-05T19:16:06.000Z,6.50
2022-11-05T19:18:07.819Z,6.60
2022-11-05T19:20:09.935Z,6.50
2022-11-05T19:22:11.716Z,6.50
2022-11-05T19:24:17.093Z,6.50
2022-11-05T19:26:27.257Z,6.80
2022-11-05T19:28:33.313Z,7.00
2022-11-05T19:30:35.107Z,6.70
2022-11-05T19:32:37.180Z,6.60
2022-11-05T19:34:39.039Z,6.50
2022-11-05T19:36:41.531Z,6.50
2022-11-05T19:38:45.095Z,6.40
2022-11-05T19:40:47.130Z,6.30
2022-11-05T19:42:52.081Z,6.30
2022-11-05T19:44:56.264Z,6.30
2022-11-05T19:46:58.358Z,6.30
2022-11-05T19:49:02.259Z,6.30
2022-11-05T19:51:05.051Z,6.30
2022-11-05T19:53:06.767Z,6.50
2022-11-05T19:55:12.157Z,6.20
2022-11-05T19:57:14.217Z,6.20
2022-11-05T19:59:18.098Z,6.10
2022-11-05T20:01:23.138Z,6.20
2022-11-05T20:03:25.079Z,6.10
2022-11-05T20:05:26.759Z,6.10
2022-11-05T20:07:28.630Z,6.00
2022-11-05T20:09:30.376Z,6.10
2022-11-05T20:11:32.198Z,6.00
2022-11-05T20:13:34.144Z,6.00
2022-11-05T20:15:39.657Z,6.00
2022-11-05T20:17:41.547Z,6.10
2022-11-05T20:19:43.296Z,6.00
2022-11-05T20:21:45.426Z,6.10
2022-11-05T20:23:49.883Z,6.20
2022-11-05T20:25:53.521Z,6.20
2022-11-05T20:27:58.859Z,6.30
2022-11-05T20:30:00.765Z,6.30
2022-11-05T20:32:03.218Z,6.10
2022-11-05T20:34:05.126Z,6.30
2022-11-05T20:36:08.643Z,6.20
2022-11-05T20:38:11.818Z,6.20
2022-11-05T20:40:16.674Z,6.10
2022-11-05T20:42:18.366Z,6.10
2022-11-05T20:44:20.222Z,6.00
2022-11-05T20:46:26.841Z,6.00
2022-11-05T20:48:35.320Z,6.00
2022-11-05T20:50:48.879Z,6.00
2022-11-05T20:52:59.229Z,6.10
2022-11-05T20:55:06.488Z,6.20
2022-11-05T20:57:10.200Z,6.20
2022-11-05T20:59:12.244Z,6.10
2022-11-05T21:01:21.349Z,6.20
2022-11-05T21:03:28.125Z,6.10
2022-11-05T21:05:39.430Z,6.10
2022-11-05T21:07:41.524Z,6.20
2022-11-05T21:09:43.447Z,6.20
2022-11-05T21:12:05.197Z,6.30
2022-11-05T21:14:15.236Z,6.40
2022-11-05T21:16:26.410Z,6.50
2022-11-05T21:18:37.049Z,6.30
2022-11-05T21:21:18.115Z,6.20
2022-11-05T21:23:25.931Z,6.20
2022-11-05T21:28:11.504Z,6.20
2022-11-05T21:30:14.046Z,6.20
2022-11-05T21:32:17.105Z,6.00
2022-11-05T21:34:32.481Z,6.00
2022-11-05T21:36:34.600Z,5.90
2022-11-05T21:38:51.358Z,5.90
2022-11-05T21:40:55.442Z,5.80
2022-11-05T21:42:57.572Z,5.90
2022-11-05T21:45:01.830Z,5.80
2022-11-05T21:47:05.033Z,5.70
2022-11-05T21:49:07.969Z,5.70
2022-11-05T21:51:31.678Z,5.70
2022-11-05T21:53:52.245Z,5.60
2022-11-05T21:56:12.941Z,5.70
2022-11-05T21:58:34.614Z,5.60
2022-11-05T22:00:49.916Z,5.50
2022-11-05T22:02:53.682Z,5.50
2022-11-05T22:05:04.399Z,5.50
2022-11-05T22:07:07.167Z,5.50
2022-11-05T22:09:25.219Z,5.50
2022-11-05T22:11:32.637Z,5.60
2022-11-05T22:13:36.365Z,5.70
2022-11-05T22:15:42.973Z,5.80
2022-11-05T22:17:50.760Z,5.70
2022-11-05T22:19:57.072Z,5.50
2022-11-05T22:22:08.759Z,5.50
2022-11-05T22:24:13.928Z,5.50
2022-11-05T22:26:19.704Z,5.50
2022-11-05T22:28:21.717Z,5.60
2022-11-05T22:30:27.297Z,5.60
2022-11-05T22:32:29.195Z,5.60
2022-11-05T22:34:31.952Z,5.50
2022-11-05T22:36:34.464Z,5.40
2022-11-05T22:38:36.220Z,5.40
2022-11-05T22:40:39.519Z,5.40
2022-11-05T22:42:58.914Z,5.50
2022-11-05T22:45:01.342Z,5.40
2022-11-05T22:47:09.457Z,5.40
2022-11-05T22:49:11.361Z,5.40
2022-11-05T22:51:14.690Z,5.50
2022-11-05T22:53:16.379Z,5.60
2022-11-05T22:55:18.117Z,5.70
2022-11-05T22:57:19.900Z,5.70
2022-11-05T22:59:21.846Z,5.70
2022-11-05T23:01:24.668Z,5.80
2022-11-05T23:03:27.413Z,5.80
2022-11-05T23:05:29.198Z,5.70
2022-11-05T23:07:49.363Z,5.70
2022-11-05T23:10:12.102Z,6.10
2022-11-05T23:12:34.089Z,6.10
2022-11-05T23:14:38.739Z,6.00
2022-11-05T23:16:59.992Z,6.00
2022-11-05T23:19:21.978Z,6.10
2022-11-05T23:21:42.422Z,6.20
2022-11-05T23:24:02.797Z,6.20
2022-11-05T23:26:36.994Z,6.30
2022-11-05T23:28:41.271Z,6.20
2022-11-05T23:31:04.304Z,6.00
2022-11-05T23:33:06.106Z,5.90
2022-11-05T23:35:08.024Z,6.20
2022-11-05T23:37:28.588Z,6.30
2022-11-05T23:39:30.358Z,6.20
2022-11-05T23:41:50.784Z,6.30
2022-11-05T23:44:10.927Z,6.40
2022-11-05T23:46:33.994Z,6.20
2022-11-05T23:48:37.394Z,6.30
2022-11-05T23:50:41.870Z,6.20
2022-11-05T23:52:46.169Z,6.30
2022-11-05T23:54:50.408Z,6.10
2022-11-05T23:56:57.074Z,6.00
2022-11-05T23:59:01.224Z,6.00
